Time;durP1;ratioP1;P1;durP2;ratioP2;P2;SDS_P1;SDS_P2;PMS_P1;PMS_P2;Temp;Humidity;BMP_temperature;BMP_pressure;BME280_temperature;BME280_humidity;BME280_pressure;Samples;Min_cycle;Max_cycle;Signal;HPM_P1;HPM_P2
2022/11/03 00:02:15;;;;;;;13.60;6.85;;;;;;;6.68;100.00;101198.75;5036901;28;20082;-79
2022/11/03 00:04:42;;;;;;;12.70;5.70;;;;;;;6.63;100.00;101197.25;5054619;28;20125;-80
2022/11/03 00:07:08;;;;;;;14.20;6.50;;;;;;;6.62;100.00;101196.44;5035998;28;20033;-79
2022/11/03 00:09:46;;;;;;;11.35;6.50;;;;;;;6.57;100.00;101199.00;5035704;28;20029;-79
2022/11/03 00:12:12;;;;;;;16.33;7.00;;;;;;;6.56;100.00;101203.09;5019300;28;20024;-78
2022/11/03 00:14:40;;;;;;;13.40;6.82;;;;;;;6.52;100.00;101203.19;5035477;28;20397;-78
2022/11/03 00:17:05;;;;;;;13.98;7.15;;;;;;;6.32;100.00;101181.78;5053292;28;20033;-79
2022/11/03 00:19:41;;;;;;;13.50;6.53;;;;;;;6.44;100.00;101196.06;5053431;28;20021;-79
2022/11/03 00:22:32;;;;;;;17.15;6.53;;;;;;;6.41;100.00;101196.16;5053144;28;20036;-77
2022/11/03 00:25:05;;;;;;;14.35;6.03;;;;;;;6.37;100.00;101203.97;5034942;28;20095;-80
2022/11/03 00:27:30;;;;;;;11.63;6.05;;;;;;;6.32;100.00;101201.66;5035205;28;20253;-79
2022/11/03 00:30:14;;;;;;;12.45;5.90;;;;;;;6.29;100.00;101208.97;5053176;28;20078;-79
2022/11/03 00:33:10;;;;;;;10.25;6.72;;;;;;;6.27;100.00;101199.31;5053167;28;20033;-78
2022/11/03 00:35:36;;;;;;;11.07;5.85;;;;;;;6.03;100.00;101175.94;5053262;28;20036;-79
2022/11/03 00:38:03;;;;;;;12.27;6.05;;;;;;;6.19;100.00;101207.16;5054031;28;20033;-79
2022/11/03 00:40:30;;;;;;;15.45;6.43;;;;;;;6.15;100.00;101195.91;5053272;28;20190;-79
2022/11/03 00:42:57;;;;;;;15.38;6.57;;;;;;;6.07;100.00;101190.84;5053034;28;20040;-78
2022/11/03 00:45:23;;;;;;;15.18;6.80;;;;;;;6.07;100.00;101194.50;5035996;28;20385;-80
2022/11/03 00:50:52;;;;;;;12.68;7.13;;;;;;;5.98;100.00;101184.97;5054310;28;20040;-78
2022/11/03 00:53:18;;;;;;;16.00;6.28;;;;;;;5.72;100.00;101153.53;5036339;28;20020;-78
2022/11/03 00:55:49;;;;;;;16.02;6.20;;;;;;;5.96;100.00;101188.25;5018968;28;20043;-78
2022/11/03 00:58:15;;;;;;;13.25;6.65;;;;;;;5.89;100.00;101179.91;5015725;28;20021;-78
2022/11/03 01:00:40;;;;;;;14.20;6.22;;;;;;;5.91;100.00;101197.28;5015791;28;20121;-79
2022/11/03 01:03:07;;;;;;;11.70;6.45;;;;;;;5.89;100.00;101190.47;5033939;28;20452;-78
2022/11/03 01:08:24;;;;;;;14.55;7.05;;;;;;;5.82;100.00;101182.91;5019157;28;20484;-78
2022/11/03 01:13:38;;;;;;;11.77;6.85;;;;;;;5.73;100.00;101186.34;5033907;28;20087;-78
2022/11/03 01:16:04;;;;;;;14.27;6.68;;;;;;;5.72;100.00;101192.44;5016399;28;20083;-80
2022/11/03 01:18:32;;;;;;;10.35;6.65;;;;;;;5.62;100.00;101180.09;5016297;28;20119;-79
2022/11/03 01:20:59;;;;;;;16.55;6.50;;;;;;;5.59;100.00;101175.31;5031928;28;20409;-79
2022/11/03 01:23:25;;;;;;;12.70;6.35;;;;;;;5.62;100.00;101182.13;5033585;28;20025;-79
2022/11/03 01:25:52;;;;;;;15.32;7.53;;;;;;;5.59;100.00;101186.63;5034103;28;20036;-78
2022/11/03 01:28:19;;;;;;;13.02;6.65;;;;;;;5.57;100.00;101183.44;5034151;28;20454;-79
2022/11/03 01:30:45;;;;;;;16.05;6.35;;;;;;;5.53;100.00;101181.91;5015353;28;20108;-78
2022/11/03 01:33:11;;;;;;;13.32;6.82;;;;;;;5.48;100.00;101179.59;5032996;28;20068;-79
2022/11/03 01:35:37;;;;;;;19.00;7.43;;;;;;;5.45;100.00;101186.13;5031554;28;20045;-79
2022/11/03 01:38:05;;;;;;;15.32;7.43;;;;;;;5.44;100.00;101188.16;5017769;28;20031;-78
2022/11/03 01:40:32;;;;;;;14.60;6.75;;;;;;;5.34;100.00;101181.47;5038002;28;20045;-78
2022/11/03 01:43:17;;;;;;;16.33;7.38;;;;;;;5.41;100.00;101188.22;5019720;28;20112;-79
2022/11/03 01:45:44;;;;;;;16.48;7.22;;;;;;;5.37;100.00;101189.09;5003791;28;20482;-79
2022/11/03 01:48:18;;;;;;;12.02;6.47;;;;;;;5.35;100.00;101185.88;5003272;28;20482;-79
2022/11/03 01:50:52;;;;;;;11.38;6.32;;;;;;;5.32;100.00;101188.81;5037367;28;20497;-78
2022/11/03 01:53:34;;;;;;;13.00;6.82;;;;;;;5.30;100.00;101180.72;5037518;28;20021;-77
2022/11/03 01:56:00;;;;;;;13.52;6.15;;;;;;;5.29;100.00;101184.81;5019439;28;20351;-80
2022/11/03 01:58:33;;;;;;;16.60;7.18;;;;;;;5.25;100.00;101186.91;5003272;28;20081;-80
2022/11/03 02:01:01;;;;;;;17.38;7.30;;;;;;;5.23;100.00;101180.88;5019178;28;20069;-79
2022/11/03 02:03:30;;;;;;;13.23;6.70;;;;;;;5.21;100.00;101183.34;5003146;28;20044;-79
2022/11/03 02:06:11;;;;;;;12.20;6.57;;;;;;;5.15;100.00;101165.28;4986231;28;20183;-78
2022/11/03 02:09:06;;;;;;;14.93;6.45;;;;;;;5.17;100.00;101168.44;5018447;28;20026;-79
2022/11/03 02:12:06;;;;;;;12.95;5.97;;;;;;;5.17;100.00;101170.47;5017935;28;20474;-79
2022/11/03 02:14:43;;;;;;;14.80;6.63;;;;;;;5.15;100.00;101162.44;5003184;28;20477;-77
2022/11/03 02:17:10;;;;;;;12.10;6.70;;;;;;;4.97;100.00;101127.19;5017927;28;20029;-77
2022/11/03 02:19:49;;;;;;;14.05;6.25;;;;;;;5.13;100.00;101161.25;5034921;28;20053;-77
2022/11/03 02:22:45;;;;;;;12.82;5.97;;;;;;;5.12;100.00;101154.00;5019277;28;20108;-77
2022/11/03 02:25:49;;;;;;;16.08;7.35;;;;;;;5.08;100.00;101154.06;5025131;28;20037;-77
2022/11/03 02:28:24;;;;;;;14.70;6.65;;;;;;;5.05;100.00;101152.13;5035466;28;20032;-77
2022/11/03 02:31:07;;;;;;;17.08;7.60;;;;;;;5.04;100.00;101141.22;5017653;28;20044;-77
2022/11/03 02:33:45;;;;;;;18.77;9.60;;;;;;;5.00;100.00;101132.78;5035344;28;20030;-79
2022/11/03 02:36:22;;;;;;;27.00;12.90;;;;;;;4.94;100.00;101137.34;5035524;28;20489;-78
2022/11/03 02:38:58;;;;;;;29.15;11.50;;;;;;;4.87;100.00;101143.94;5017879;28;20115;-78
2022/11/03 02:41:26;;;;;;;25.38;12.23;;;;;;;4.82;100.00;101135.94;5003169;28;20026;-78
2022/11/03 02:43:55;;;;;;;44.47;16.48;;;;;;;4.76;100.00;101142.56;5018808;28;20029;-78
2022/11/03 02:46:23;;;;;;;41.42;15.82;;;;;;;4.69;100.00;101142.69;5002561;28;20120;-79
2022/11/03 02:48:49;;;;;;;34.53;15.13;;;;;;;4.55;100.00;101138.06;5001593;28;20486;-77
2022/11/03 02:51:14;;;;;;;25.15;11.52;;;;;;;4.55;100.00;101145.75;5018483;28;20115;-77
2022/11/03 02:54:02;;;;;;;25.10;10.45;;;;;;;4.51;100.00;101143.00;5018458;28;20044;-78
2022/11/03 02:56:30;;;;;;;27.30;10.85;;;;;;;4.46;100.00;101132.94;5036219;28;20466;-78
2022/11/03 02:59:09;;;;;;;25.48;10.75;;;;;;;4.46;100.00;101135.78;5002087;28;20069;-77
2022/11/03 03:01:45;;;;;;;26.67;9.27;;;;;;;4.42;100.00;101129.38;4998563;28;20047;-78
2022/11/03 03:04:15;;;;;;;22.02;10.60;;;;;;;4.38;100.00;101134.31;4983873;28;20026;-79
2022/11/03 03:06:46;;;;;;;23.77;10.15;;;;;;;4.33;100.00;101136.81;4981745;28;20130;-78
2022/11/03 03:09:20;;;;;;;16.45;8.20;;;;;;;4.29;100.00;101136.09;4998797;28;20061;-78
2022/11/03 03:11:48;;;;;;;18.55;9.70;;;;;;;4.26;100.00;101128.47;4982634;28;20084;-78
2022/11/03 03:14:31;;;;;;;20.40;9.15;;;;;;;4.20;100.00;101121.69;4982604;28;20034;-78
2022/11/03 03:17:04;;;;;;;20.38;9.00;;;;;;;4.17;100.00;101128.22;4982094;28;20026;-78
2022/11/03 03:19:58;;;;;;;20.92;8.55;;;;;;;4.13;100.00;101118.97;5015803;28;20383;-79
2022/11/03 03:22:25;;;;;;;17.50;9.05;;;;;;;4.11;100.00;101112.97;4998187;28;20117;-78
2022/11/03 03:25:00;;;;;;;17.73;8.98;;;;;;;4.08;100.00;101109.75;5016019;28;20057;-78
2022/11/03 03:27:29;;;;;;;13.73;8.82;;;;;;;4.05;100.00;101112.66;5015852;28;20539;-78
2022/11/03 03:30:03;;;;;;;20.23;9.13;;;;;;;4.02;100.00;101114.28;4981915;28;20476;-78
2022/11/03 03:32:34;;;;;;;18.42;9.88;;;;;;;4.02;100.00;101107.81;4982335;28;20037;-79
2022/11/03 03:35:02;;;;;;;23.60;10.27;;;;;;;3.98;100.00;101116.38;4998227;28;20030;-79
2022/11/03 03:37:36;;;;;;;18.25;8.73;;;;;;;3.95;100.00;101108.75;4982283;28;20293;-78
2022/11/03 03:40:07;;;;;;;20.27;8.95;;;;;;;3.92;100.00;101109.59;4982529;28;20506;-79
2022/11/03 03:42:35;;;;;;;17.45;9.07;;;;;;;3.92;100.00;101111.66;4981845;28;20056;-78
2022/11/03 03:45:02;;;;;;;18.45;8.95;;;;;;;3.91;100.00;101118.53;4981594;28;20022;-77
2022/11/03 03:47:30;;;;;;;20.83;7.78;;;;;;;3.87;100.00;101107.25;4981464;28;20030;-77
2022/11/03 03:50:11;;;;;;;26.80;10.02;;;;;;;3.87;100.00;101103.66;4981978;28;20038;-77
2022/11/03 03:52:37;;;;;;;16.33;8.90;;;;;;;3.84;100.00;101091.13;5015492;28;20025;-77
2022/11/03 03:55:11;;;;;;;15.00;7.57;;;;;;;3.81;100.00;101091.19;4997771;28;20049;-77
2022/11/03 03:57:36;;;;;;;23.33;9.45;;;;;;;3.75;100.00;101085.22;4998126;28;20107;-77
2022/11/03 04:00:05;;;;;;;20.08;8.68;;;;;;;3.79;100.00;101099.28;5022809;28;20481;-77
2022/11/03 04:02:31;;;;;;;16.60;8.30;;;;;;;3.77;100.00;101096.91;5034811;28;20374;-77
2022/11/03 04:04:58;;;;;;;16.75;8.10;;;;;;;3.77;100.00;101101.75;5033748;28;20112;-77
2022/11/03 04:10:08;;;;;;;18.23;8.73;;;;;;;3.74;100.00;101099.75;5020032;28;20425;-77
2022/11/03 04:23:33;;;;;;;18.92;8.60;;;;;;;3.64;100.00;101090.22;5034742;28;20087;-78
2022/11/03 04:26:00;;;;;;;26.13;9.80;;;;;;;3.61;100.00;101103.19;5016677;28;20025;-77
2022/11/03 04:28:27;;;;;;;16.85;8.65;;;;;;;3.54;100.00;101088.34;5034552;28;20025;-78
2022/11/03 04:31:00;;;;;;;15.73;8.68;;;;;;;3.45;100.00;101088.06;5016631;28;20025;-78
2022/11/03 04:33:26;;;;;;;17.15;8.43;;;;;;;3.45;100.00;101086.06;5016601;28;20543;-78
2022/11/03 04:36:01;;;;;;;11.77;6.82;;;;;;;3.43;100.00;101090.50;5000249;28;20029;-76
2022/11/03 04:38:28;;;;;;;13.25;6.05;;;;;;;3.37;100.00;101089.41;5033052;28;20018;-76
2022/11/03 04:40:56;;;;;;;16.02;6.93;;;;;;;3.34;100.00;101093.06;5000329;28;20033;-77
2022/11/03 04:43:28;;;;;;;15.25;6.95;;;;;;;3.29;100.00;101085.88;5016901;28;20079;-76
2022/11/03 04:45:55;;;;;;;19.85;6.57;;;;;;;3.29;100.00;101074.56;5000878;28;20033;-77
2022/11/03 04:48:23;;;;;;;9.20;5.80;;;;;;;3.29;100.00;101088.69;4999985;28;20037;-78
2022/11/03 04:50:54;;;;;;;12.10;6.50;;;;;;;3.26;100.00;101068.97;5016222;28;20120;-77
2022/11/03 04:53:21;;;;;;;14.38;6.90;;;;;;;3.27;100.00;101077.03;5016361;28;20048;-78
2022/11/03 04:55:52;;;;;;;15.35;6.50;;;;;;;3.24;100.00;101075.03;5016361;28;20039;-78
2022/11/03 04:58:25;;;;;;;13.50;6.55;;;;;;;3.26;100.00;101083.91;5016257;28;20084;-77
2022/11/03 05:01:00;;;;;;;15.02;5.78;;;;;;;3.23;100.00;101084.72;5033655;28;20494;-78
2022/11/03 05:03:35;;;;;;;15.80;6.30;;;;;;;3.21;100.00;101071.06;5000048;28;20363;-78
2022/11/03 05:06:35;;;;;;;12.25;6.18;;;;;;;3.21;100.00;101070.25;5016200;28;20033;-78
2022/11/03 05:09:07;;;;;;;20.02;6.95;;;;;;;3.20;100.00;101072.25;5032784;28;20363;-78
2022/11/03 05:11:37;;;;;;;19.75;7.68;;;;;;;3.20;100.00;101063.78;4999524;28;20172;-78
2022/11/03 05:14:20;;;;;;;12.02;6.32;;;;;;;3.21;100.00;101064.59;5033669;28;20029;-78
2022/11/03 05:17:25;;;;;;;15.00;6.70;;;;;;;3.19;100.00;101070.66;5033622;28;20026;-78
2022/11/03 05:20:00;;;;;;;20.20;6.78;;;;;;;3.17;100.00;101058.22;5033793;28;20136;-78
2022/11/03 05:22:46;;;;;;;12.70;6.43;;;;;;;3.15;100.00;101057.81;5021230;28;20082;-77
2022/11/03 05:25:40;;;;;;;11.52;5.78;;;;;;;3.12;100.00;101044.56;5053377;28;20108;-80
2022/11/03 05:28:26;;;;;;;9.88;6.07;;;;;;;3.13;100.00;101046.94;5035951;28;20043;-76
2022/11/03 05:30:52;;;;;;;15.07;6.90;;;;;;;3.14;100.00;101044.91;5035619;28;20037;-77
2022/11/03 05:33:26;;;;;;;12.13;7.03;;;;;;;3.14;100.00;101056.22;5019107;28;20028;-78
2022/11/03 05:35:53;;;;;;;14.02;6.78;;;;;;;3.12;100.00;101051.00;5053729;28;20116;-77
2022/11/03 05:38:20;;;;;;;13.38;6.80;;;;;;;3.12;100.00;101045.34;5035944;28;20117;-77
2022/11/03 05:40:49;;;;;;;15.68;7.63;;;;;;;3.12;100.00;101045.34;5018806;28;20033;-77
2022/11/03 05:43:20;;;;;;;9.35;6.38;;;;;;;3.15;100.00;101043.69;5037021;28;20115;-82
2022/11/03 05:45:53;;;;;;;16.70;7.28;;;;;;;3.10;100.00;101044.97;5055306;28;20029;-79
2022/11/03 05:48:34;;;;;;;13.40;6.93;;;;;;;3.15;100.00;101044.50;5037791;28;20041;-78
2022/11/03 05:51:09;;;;;;;18.13;7.22;;;;;;;3.14;100.00;101042.91;5037459;28;20040;-78
2022/11/03 05:53:37;;;;;;;17.38;7.88;;;;;;;3.15;100.00;101041.69;5036798;28;20481;-79
2022/11/03 05:56:04;;;;;;;14.90;6.20;;;;;;;3.09;100.00;101017.94;5035445;28;20159;-74
2022/11/03 05:58:41;;;;;;;22.15;8.45;;;;;;;3.17;100.00;101027.13;5052942;28;20029;-74
2022/11/03 06:01:28;;;;;;;24.92;8.05;;;;;;;3.17;100.00;101029.97;5052826;28;20191;-77
2022/11/03 06:03:55;;;;;;;13.43;6.82;;;;;;;3.17;100.00;101025.13;5034016;28;20075;-76
2022/11/03 06:06:33;;;;;;;11.40;6.40;;;;;;;3.17;100.00;101029.97;4999371;28;20029;-76
2022/11/03 06:09:03;;;;;;;16.63;5.88;;;;;;;3.16;100.00;101029.16;5015850;28;20376;-77
2022/11/03 06:11:48;;;;;;;13.18;6.85;;;;;;;3.16;100.00;101034.00;4999128;28;20486;-74
2022/11/03 06:14:23;;;;;;;12.68;6.15;;;;;;;3.18;100.00;101037.22;4999071;28;20029;-76
2022/11/03 06:17:06;;;;;;;18.00;7.18;;;;;;;3.21;100.00;101042.00;5012952;28;20033;-80
2022/11/03 06:19:42;;;;;;;15.40;7.97;;;;;;;3.22;100.00;101038.78;5015379;28;20041;-81
2022/11/03 06:22:28;;;;;;;16.58;7.45;;;;;;;3.20;100.00;101034.75;4998950;28;20052;-79
2022/11/03 06:25:00;;;;;;;15.85;8.02;;;;;;;3.28;100.00;101041.13;5017279;28;20039;-81
2022/11/03 06:27:29;;;;;;;13.45;6.85;;;;;;;3.31;100.00;101049.53;5018437;28;20411;-81
2022/11/03 06:29:58;;;;;;;14.30;7.63;;;;;;;3.30;100.00;101035.81;5017775;28;20025;-80
2022/11/03 06:32:26;;;;;;;17.48;8.25;;;;;;;3.42;100.00;101047.38;5002253;28;20426;-78
2022/11/03 06:34:53;;;;;;;16.95;9.57;;;;;;;3.49;100.00;101054.91;5018687;28;20048;-78
2022/11/03 06:37:20;;;;;;;13.10;6.75;;;;;;;3.18;100.00;100994.88;5002042;28;20021;-79
2022/11/03 06:39:46;;;;;;;19.00;7.57;;;;;;;3.54;100.00;101041.13;5036122;28;20037;-79
2022/11/03 06:42:13;;;;;;;19.67;8.10;;;;;;;3.79;100.00;101054.06;5001788;28;20029;-78
2022/11/03 06:44:44;;;;;;;14.90;7.35;;;;;;;3.91;100.00;101050.69;5035962;28;20516;-80
2022/11/03 06:47:28;;;;;;;16.77;7.00;;;;;;;3.96;100.00;101038.88;5018673;28;20041;-79
2022/11/03 06:50:00;;;;;;;20.27;7.22;;;;;;;4.17;100.00;101041.31;5018123;28;20378;-74
2022/11/03 06:52:34;;;;;;;16.33;6.80;;;;;;;4.32;100.00;101048.31;5018412;28;20025;-74
2022/11/03 06:55:05;;;;;;;16.63;7.35;;;;;;;4.42;100.00;101044.50;5018259;28;20026;-74
2022/11/03 06:57:36;;;;;;;12.32;7.25;;;;;;;4.52;100.00;101039.88;5035794;28;20026;-75
2022/11/03 07:00:14;;;;;;;14.52;7.03;;;;;;;4.63;100.00;101046.13;5018249;28;20411;-74
2022/11/03 07:02:58;;;;;;;17.75;7.90;;;;;;;4.78;100.00;101049.47;5001181;28;20364;-75
2022/11/03 07:05:25;;;;;;;16.90;7.78;;;;;;;4.78;100.00;101026.84;5018114;28;20485;-76
2022/11/03 07:07:59;;;;;;;16.20;8.63;;;;;;;5.01;100.00;101043.75;5018043;28;20025;-76
2022/11/03 07:10:27;;;;;;;16.38;8.57;;;;;;;5.02;100.00;101041.72;5018479;28;20091;-76
2022/11/03 07:12:54;;;;;;;16.08;8.93;;;;;;;5.07;100.00;101042.00;5017982;28;20463;-75
2022/11/03 07:15:26;;;;;;;17.80;9.63;;;;;;;5.07;100.00;101029.88;5017872;28;20022;-74
2022/11/03 07:17:52;;;;;;;16.10;8.63;;;;;;;5.11;100.00;101031.38;5001379;28;20037;-75
2022/11/03 07:20:17;;;;;;;17.65;9.10;;;;;;;5.15;100.00;101039.81;5001890;28;20393;-74
2022/11/03 07:22:44;;;;;;;14.77;9.10;;;;;;;5.18;100.00;101028.41;5018120;28;20449;-76
2022/11/03 07:25:18;;;;;;;19.17;9.65;;;;;;;5.28;100.00;101040.75;5017669;28;20112;-75
2022/11/03 07:27:45;;;;;;;19.13;8.98;;;;;;;5.17;100.00;101009.00;5001315;28;20029;-76
2022/11/03 07:30:19;;;;;;;18.42;10.23;;;;;;;5.44;100.00;101026.63;5001088;28;20025;-74
2022/11/03 07:32:45;;;;;;;23.08;10.55;;;;;;;5.64;100.00;101029.41;5001197;28;20060;-75
2022/11/03 07:35:16;;;;;;;27.40;10.70;;;;;;;6.00;100.00;101038.63;5017287;28;20422;-73
2022/11/03 07:37:43;;;;;;;19.77;8.52;;;;;;;6.40;100.00;101039.22;5033700;28;20025;-76
2022/11/03 07:40:27;;;;;;;19.17;9.15;;;;;;;6.83;100.00;101023.88;4998718;28;20029;-77
2022/11/03 07:42:58;;;;;;;19.52;8.00;;;;;;;7.33;100.00;101026.81;5015127;28;20029;-76
2022/11/03 07:45:38;;;;;;;18.90;8.32;;;;;;;7.86;100.00;101008.06;5033174;28;20057;-80
2022/11/03 07:48:13;;;;;;;15.15;7.75;;;;;;;8.35;100.00;100999.91;4999122;28;20022;-75
2022/11/03 07:50:38;;;;;;;18.80;8.75;;;;;;;8.92;100.00;100997.00;5015181;28;20402;-75
2022/11/03 07:53:11;;;;;;;16.05;7.35;;;;;;;9.51;100.00;100993.06;5033987;28;20025;-76
2022/11/03 07:55:36;;;;;;;19.92;6.45;;;;;;;9.96;100.00;100978.19;5000617;28;20098;-75
2022/11/03 07:58:27;;;;;;;75.97;13.43;;;;;;;10.23;100.00;100994.59;5017001;28;20053;-74
2022/11/03 08:00:57;;;;;;;19.40;6.07;;;;;;;10.33;100.00;100994.13;5000158;28;20493;-77
2022/11/03 08:03:38;;;;;;;15.48;6.22;;;;;;;10.28;100.00;100994.75;5017392;28;20018;-75
2022/11/03 08:06:04;;;;;;;21.63;5.87;;;;;;;10.19;100.00;100988.22;5000559;28;20033;-76
2022/11/03 08:08:30;;;;;;;32.70;7.13;;;;;;;9.98;100.00;100975.66;5017079;28;20021;-76
2022/11/03 08:10:55;;;;;;;25.15;8.25;;;;;;;9.92;100.00;100978.34;5016868;28;20030;-74
2022/11/03 08:13:20;;;;;;;36.30;7.68;;;;;;;9.80;100.00;100972.75;5034568;28;20033;-77
2022/11/03 08:15:46;;;;;;;67.05;12.80;;;;;;;9.65;100.00;100966.78;5034423;28;20437;-74
2022/11/03 08:18:11;;;;;;;12.90;5.65;;;;;;;9.60;100.00;100967.41;5016444;28;20053;-77
2022/11/03 08:20:37;;;;;;;35.22;10.82;;;;;;;9.01;100.00;100903.78;5034204;28;20013;-76
2022/11/03 08:23:02;;;;;;;17.02;6.35;;;;;;;9.42;100.00;100959.59;5034349;28;20025;-77
2022/11/03 08:25:30;;;;;;;46.78;10.05;;;;;;;9.12;100.00;100931.88;5034231;28;20104;-77
2022/11/03 08:27:56;;;;;;;16.13;5.55;;;;;;;8.58;100.00;100866.81;5034107;28;20026;-74
2022/11/03 08:30:21;;;;;;;40.15;8.27;;;;;;;9.13;100.00;100937.13;5016234;28;20021;-75
2022/11/03 08:32:46;;;;;;;22.25;7.38;;;;;;;8.75;100.00;100911.75;5033977;28;20049;-74
2022/11/03 08:35:12;;;;;;;11.95;5.70;;;;;;;9.02;100.00;100927.38;5016616;28;20459;-76
2022/11/03 08:37:37;;;;;;;13.40;5.18;;;;;;;9.03;100.00;100918.38;5034388;28;20057;-76
2022/11/03 08:40:03;;;;;;;20.27;6.80;;;;;;;9.20;100.00;100933.97;5016535;28;20112;-76
2022/11/03 08:42:28;;;;;;;12.07;5.90;;;;;;;9.23;100.00;100918.78;5033767;28;20068;-76
2022/11/03 08:44:55;;;;;;;13.93;6.63;;;;;;;9.31;100.00;100915.63;5016211;28;20402;-75
2022/11/03 08:47:20;;;;;;;13.45;6.38;;;;;;;9.21;100.00;100901.34;4999155;28;20037;-76
2022/11/03 08:49:46;;;;;;;15.32;5.38;;;;;;;9.20;100.00;100896.09;5033879;28;20036;-75
2022/11/03 08:52:11;;;;;;;10.07;6.15;;;;;;;9.17;100.00;100883.59;5033610;28;20060;-75
2022/11/03 08:54:40;;;;;;;10.00;6.10;;;;;;;9.35;100.00;100907.75;5016075;28;20072;-77
2022/11/03 08:57:08;;;;;;;21.40;5.25;;;;;;;9.43;100.00;100906.19;5033872;28;20029;-74
2022/11/03 08:59:33;;;;;;;9.75;5.07;;;;;;;9.47;100.00;100892.56;5033315;28;20132;-74
2022/11/03 09:01:59;;;;;;;14.70;4.97;;;;;;;9.50;100.00;100883.06;5014910;28;20072;-74
2022/11/03 09:04:28;;;;;;;13.77;5.13;;;;;;;9.65;100.00;100886.91;5043711;28;20071;-76
2022/11/03 09:06:54;;;;;;;9.05;4.70;;;;;;;9.73;100.00;100876.03;5035131;28;20045;-75
2022/11/03 09:09:20;;;;;;;11.73;4.18;;;;;;;9.87;100.00;100876.19;5052906;28;20079;-76
2022/11/03 09:11:46;;;;;;;13.25;4.57;;;;;;;9.97;100.00;100874.16;5052154;28;20052;-75
2022/11/03 09:14:13;;;;;;;8.98;5.15;;;;;;;10.00;100.00;100865.41;5052941;28;20029;-75
2022/11/03 09:16:41;;;;;;;12.77;4.47;;;;;;;10.15;100.00;100873.34;5052246;28;20041;-75
2022/11/03 09:19:24;;;;;;;11.77;3.90;;;;;;;10.25;100.00;100872.88;5035085;28;20052;-74
2022/11/03 09:21:51;;;;;;;10.57;4.30;;;;;;;10.35;100.00;100865.88;5052975;28;20040;-75
2022/11/03 09:24:17;;;;;;;8.60;4.53;;;;;;;10.47;100.00;100864.94;5052861;28;20501;-77
2022/11/03 09:26:44;;;;;;;13.43;4.20;;;;;;;10.53;100.00;100856.50;5018467;28;20040;-75
2022/11/03 09:29:09;;;;;;;9.50;2.90;;;;;;;10.64;100.00;100865.34;5052796;28;20515;-76
2022/11/03 09:31:36;;;;;;;9.05;3.25;;;;;;;10.67;100.00;100852.19;5017714;28;20151;-75
2022/11/03 09:34:02;;;;;;;12.30;3.80;;;;;;;10.64;100.00;100833.91;5052818;28;20136;-75
2022/11/03 09:36:29;;;;;;;10.02;3.88;;;;;;;10.64;100.00;100821.69;5052588;28;20059;-75
2022/11/03 09:38:55;;;;;;;11.13;4.20;;;;;;;10.72;100.00;100834.38;5052735;28;20033;-74
2022/11/03 09:41:21;;;;;;;14.75;4.18;;;;;;;10.80;100.00;100838.47;5052368;28;20035;-77
2022/11/03 09:43:47;;;;;;;14.95;4.38;;;;;;;10.82;100.00;100833.06;5018218;28;20028;-76
2022/11/03 09:46:13;;;;;;;23.20;4.43;;;;;;;10.84;100.00;100834.16;5014194;28;20041;-77
2022/11/03 09:48:41;;;;;;;22.83;5.82;;;;;;;10.87;100.00;100836.09;5032745;28;20029;-76
2022/11/03 09:51:20;;;;;;;10.90;3.40;;;;;;;10.99;100.00;100835.06;5014832;28;20119;-77
2022/11/03 09:53:46;;;;;;;19.42;4.13;;;;;;;11.00;100.00;100824.41;5015086;28;20025;-76
2022/11/03 09:56:12;;;;;;;13.65;4.10;;;;;;;11.10;100.00;100828.81;4982111;28;20033;-74
2022/11/03 09:58:47;;;;;;;13.60;4.05;;;;;;;11.19;100.00;100825.94;4999497;28;20029;-76
2022/11/03 10:01:13;;;;;;;20.05;5.15;;;;;;;11.21;100.00;100822.59;5035723;28;20117;-75
2022/11/03 10:03:46;;;;;;;11.18;3.45;;;;;;;11.19;100.00;100807.97;5036662;28;20105;-75
2022/11/03 10:06:12;;;;;;;44.40;9.52;;;;;;;11.22;100.00;100815.63;5036288;28;20466;-75
2022/11/03 10:08:40;;;;;;;71.60;13.93;;;;;;;11.22;100.00;100807.03;5035743;28;20040;-75
2022/11/03 10:11:08;;;;;;;35.70;6.30;;;;;;;11.21;100.00;100811.16;5036413;28;20029;-75
2022/11/03 10:13:41;;;;;;;46.70;9.13;;;;;;;11.23;100.00;100808.59;5037996;28;20112;-78
2022/11/03 10:16:22;;;;;;;25.95;4.97;;;;;;;11.29;100.00;100798.88;5056716;28;20106;-81
2022/11/03 10:18:48;;;;;;;16.55;4.30;;;;;;;11.33;100.00;100795.81;5038422;28;20033;-79
2022/11/03 10:21:24;;;;;;;11.40;4.47;;;;;;;11.38;100.00;100793.09;5055695;28;20035;-76
2022/11/03 10:23:52;;;;;;;24.33;4.50;;;;;;;11.43;100.00;100785.91;5037895;28;20554;-76
2022/11/03 10:26:19;;;;;;;11.10;3.65;;;;;;;11.48;100.00;100779.50;5038045;28;20061;-77
2022/11/03 10:29:18;;;;;;;11.15;3.40;;;;;;;11.54;100.00;100783.28;5021604;28;20081;-76
2022/11/03 10:31:57;;;;;;;8.98;3.17;;;;;;;11.60;100.00;100769.09;5038647;28;20029;-75
2022/11/03 10:34:36;;;;;;;12.60;3.67;;;;;;;11.65;100.00;100768.41;5056368;28;20029;-75
2022/11/03 10:37:22;;;;;;;7.88;3.72;;;;;;;11.65;100.00;100754.09;5056206;28;20025;-75
2022/11/03 10:39:57;;;;;;;7.25;3.17;;;;;;;11.73;100.00;100753.22;5038039;28;20377;-75
2022/11/03 10:42:30;;;;;;;17.30;3.95;;;;;;;11.78;100.00;100755.41;5056234;28;20028;-75
2022/11/03 10:45:28;;;;;;;12.10;3.58;;;;;;;11.77;100.00;100753.81;5038946;28;20075;-75
2022/11/03 10:48:01;;;;;;;21.08;3.95;;;;;;;11.77;100.00;100744.44;5016127;28;20037;-75
2022/11/03 10:50:29;;;;;;;7.75;3.15;;;;;;;11.73;100.00;100738.91;5005504;28;20055;-74
2022/11/03 10:52:56;;;;;;;11.38;3.47;;;;;;;11.70;100.00;100736.25;5055962;28;20064;-75
2022/11/03 10:55:23;;;;;;;20.23;4.75;;;;;;;11.65;100.00;100729.13;5038072;28;20116;-76
2022/11/03 10:57:56;;;;;;;31.17;5.85;;;;;;;11.65;100.00;100729.13;5038367;28;20021;-75
2022/11/03 11:00:24;;;;;;;56.90;11.07;;;;;;;11.66;100.00;100724.22;5038868;28;20041;-76
2022/11/03 11:03:00;;;;;;;14.10;4.18;;;;;;;11.63;100.00;100730.91;5037964;28;20116;-75
2022/11/03 11:05:26;;;;;;;20.38;3.40;;;;;;;11.62;100.00;100720.72;5056082;28;20025;-76
2022/11/03 11:08:01;;;;;;;24.33;4.65;;;;;;;11.63;100.00;100708.78;5022049;28;20130;-79
2022/11/03 11:10:36;;;;;;;6.75;3.70;;;;;;;11.65;100.00;100703.38;5055065;28;20473;-78
2022/11/03 11:13:17;;;;;;;9.15;3.45;;;;;;;11.71;100.00;100695.69;5055454;28;20473;-80
2022/11/03 11:15:51;;;;;;;10.80;4.25;;;;;;;11.74;100.00;100688.97;5054784;28;20067;-78
2022/11/03 11:18:33;;;;;;;18.13;3.38;;;;;;;11.77;100.00;100687.97;5038289;28;20111;-78
2022/11/03 11:21:18;;;;;;;15.20;3.60;;;;;;;11.80;100.00;100681.28;5055563;28;20029;-79
2022/11/03 11:23:45;;;;;;;10.77;2.92;;;;;;;11.84;100.00;100669.63;5055145;28;20032;-79
2022/11/03 11:26:31;;;;;;;25.05;4.18;;;;;;;11.92;100.00;100673.66;5021315;28;20029;-79
2022/11/03 11:29:14;;;;;;;20.67;4.40;;;;;;;11.94;100.00;100670.31;5037674;28;20547;-79
2022/11/03 11:31:41;;;;;;;10.73;3.00;;;;;;;11.93;100.00;100654.41;5037246;28;20039;-79
2022/11/03 11:34:20;;;;;;;31.10;5.40;;;;;;;11.97;100.00;100655.00;5037221;28;20485;-79
2022/11/03 11:36:56;;;;;;;40.17;6.63;;;;;;;12.03;100.00;100656.69;5055457;28;20432;-79
2022/11/03 11:39:27;;;;;;;7.93;3.00;;;;;;;11.97;100.00;100632.88;5055460;28;20128;-80
2022/11/03 11:42:13;;;;;;;;;;;;;;;12.12;100.00;100653.72;5055715;28;20033;-80
2022/11/03 11:45:06;;;;;;;42.78;9.68;;;;;;;12.13;100.00;100643.84;5055284;28;20308;-78
2022/11/03 11:47:45;;;;;;;24.08;5.43;;;;;;;12.18;100.00;100646.00;5054993;28;20028;-79
2022/11/03 11:50:15;;;;;;;44.22;9.35;;;;;;;12.20;100.00;100642.66;5020466;28;20025;-79
2022/11/03 11:52:45;;;;;;;29.27;5.47;;;;;;;12.23;100.00;100633.06;5055003;28;20036;-80
2022/11/03 11:55:23;;;;;;;9.75;3.03;;;;;;;12.27;100.00;100625.84;5052837;28;20363;-80
2022/11/03 11:57:50;;;;;;;11.25;3.30;;;;;;;12.35;100.00;100622.56;5055131;28;20029;-81
2022/11/03 12:00:28;;;;;;;16.05;3.97;;;;;;;12.39;100.00;100618.25;5036717;28;20041;-78